»·PEaware :: N2494V KGEG-KMSO

N2494V :: KGEG-KMSO

FLIGHT INFORMATION

Flight Status: Arrived
Operator: Privately registered:
United States
More flights under this callsign
Pilot: Sally S. (18014)
Aircraft: Unknown
(DA62)
More flights by this aircraft type
Origin: KGEG Spokane Intl
United States
Destination: KMSO Missoula Intl
United States
More flights between these airports :: More routes between these airports
Route: +ROPES V2 MSO
File this flight plan on PilotEdge
Remarks:
Altitude:
(Current/Filed)
11,000ft
Speed:
(Current/Filed)
165kts
Departed: 09-May-18 11:55 AM
Arrived: 09-May-18 01:10 PM
Distance/Time
Traveled:
147nm/1:15
Distance/Time
To Go:
Arrived

Flight Plot

Page will automatically refresh every two minutes.

Flight plan parsing failed; only flown route is shown


Map Options




Map Legend


Flown Route
Filed Route
Departure Airport
Arrival Airport
Navaid (VOR, NDB)
Fix

Horizontal Profiles

Position Reports

Time Latitude Longitude Heading Altitude Ground
Speed
09-May-18 11:35 47.618877 -117.529156 15 2388ft 0kts
09-May-18 11:36 47.618877 -117.529156 15 2388ft 0kts
09-May-18 11:37 47.618877 -117.529156 15 2388ft 0kts
09-May-18 11:38 47.618877 -117.529156 15 2388ft 0kts
09-May-18 11:39 47.618877 -117.529156 15 2388ft 0kts
09-May-18 11:40 47.618877 -117.529156 15 2388ft 0kts
09-May-18 11:41 47.618877 -117.529156 15 2388ft 0kts
09-May-18 11:42 47.618877 -117.529156 15 2388ft 0kts
09-May-18 11:43 47.618877 -117.529156 15 2388ft 0kts
09-May-18 11:44 47.618877 -117.529156 15 2388ft 0kts
09-May-18 11:45 47.618877 -117.529156 15 2388ft 0kts
09-May-18 11:46 47.618877 -117.529156 15 2388ft 0kts
09-May-18 11:47 47.618877 -117.529156 15 2388ft 0kts
09-May-18 11:48 47.618877 -117.529156 15 2388ft 0kts
09-May-18 11:49 47.618877 -117.529156 15 2388ft 0kts
09-May-18 11:50 47.618877 -117.529156 15 2388ft 0kts
09-May-18 11:51 47.618877 -117.529156 15 2388ft 0kts
09-May-18 11:52 47.618896 -117.529149 14 2388ft 0kts
09-May-18 11:53 47.618920 -117.529139 12 2388ft 0kts
09-May-18 11:54 47.620334 -117.529392 2 2388ft 17kts
09-May-18 11:55 47.626343 -117.522003 48 2388ft 42kts
09-May-18 11:56 47.630501 -117.517488 313 2388ft 0kts
09-May-18 11:57 47.630870 -117.518740 237 2388ft 11kts
09-May-18 11:58 47.615573 -117.539768 219 3089ft 92kts
09-May-18 11:59 47.597189 -117.561803 219 4556ft 86kts
09-May-18 12:00 47.580329 -117.550722 105 5856ft 114kts
09-May-18 12:01 47.576929 -117.502604 105 6895ft 125kts
09-May-18 12:02 47.571476 -117.451581 109 7906ft 127kts
09-May-18 12:03 47.565830 -117.397036 106 8687ft 140kts
09-May-18 12:04 47.560664 -117.342090 106 9526ft 142kts
09-May-18 12:05 47.555272 -117.283838 106 10387ft 144kts
09-May-18 12:06 47.549668 -117.224099 106 11002ft 159kts
09-May-18 12:07 47.543174 -117.154376 105 11001ft 178kts
09-May-18 12:08 47.538666 -117.080544 100 11001ft 183kts
09-May-18 12:09 47.534869 -117.006478 98 11004ft 186kts
09-May-18 12:10 47.530992 -116.931263 96 11007ft 186kts
09-May-18 12:11 47.527024 -116.855347 95 11000ft 188kts
09-May-18 12:12 47.523317 -116.783840 96 11565ft 165kts
09-May-18 12:13 47.519865 -116.719227 97 12345ft 156kts
09-May-18 12:14 47.516770 -116.662523 97 12983ft 166kts
09-May-18 12:15 47.513321 -116.599837 97 12995ft 192kts
09-May-18 12:16 47.509024 -116.522115 97 12991ft 193kts
09-May-18 12:17 47.504750 -116.445728 97 12992ft 193kts
09-May-18 12:18 47.500461 -116.369632 97 12992ft 192kts
09-May-18 12:19 47.496749 -116.304647 97 12989ft 192kts
09-May-18 12:20 47.492509 -116.231437 98 12990ft 192kts
09-May-18 12:21 47.488366 -116.160436 98 12990ft 192kts
09-May-18 12:22 47.484173 -116.089493 97 12990ft 192kts
09-May-18 12:23 47.480055 -116.020582 98 12990ft 192kts
09-May-18 12:24 47.475487 -115.944825 98 12990ft 192kts
09-May-18 12:25 47.470929 -115.870154 98 12991ft 192kts
09-May-18 12:26 47.466409 -115.796856 97 12991ft 192kts
09-May-18 12:27 47.461752 -115.722033 98 12991ft 192kts
09-May-18 12:28 47.457037 -115.649501 105 12985ft 191kts
09-May-18 12:29 47.435552 -115.582459 120 12990ft 187kts
09-May-18 12:30 47.412953 -115.515798 120 12988ft 187kts
09-May-18 12:31 47.389775 -115.447552 120 12985ft 188kts
09-May-18 12:32 47.366738 -115.379873 120 12982ft 188kts
09-May-18 12:33 47.345034 -115.316273 121 12981ft 191kts
09-May-18 12:34 47.321393 -115.247160 121 12980ft 192kts
09-May-18 12:35 47.297322 -115.176988 121 12980ft 192kts
09-May-18 12:36 47.273562 -115.107886 121 12980ft 191kts
09-May-18 12:37 47.249621 -115.038457 121 12980ft 191kts
09-May-18 12:38 47.225695 -114.969256 121 12981ft 190kts
09-May-18 12:39 47.201775 -114.900242 121 12981ft 189kts
09-May-18 12:40 47.177891 -114.831534 121 12981ft 189kts
09-May-18 12:41 47.154038 -114.763082 121 12981ft 189kts
09-May-18 12:42 47.130027 -114.694237 121 12981ft 189kts
09-May-18 12:43 47.106174 -114.625569 121 12981ft 189kts
09-May-18 12:44 47.082246 -114.556635 120 12981ft 189kts
09-May-18 12:45 47.058273 -114.487578 120 12818ft 198kts
09-May-18 12:46 47.032287 -114.414086 120 12020ft 204kts
09-May-18 12:47 47.006486 -114.344786 131 11304ft 199kts
09-May-18 12:48 46.978324 -114.275492 121 10598ft 199kts
09-May-18 12:49 46.952331 -114.204481 120 9892ft 198kts
09-May-18 12:50 46.926391 -114.133726 120 9213ft 195kts
09-May-18 12:51 46.901171 -114.068498 126 9179ft 176kts
09-May-18 12:52 46.876115 -114.013368 125 9013ft 178kts
09-May-18 12:53 46.848907 -113.953511 125 8982ft 177kts
09-May-18 12:54 46.821586 -113.893550 126 8982ft 177kts
09-May-18 12:55 46.788544 -113.840446 147 8897ft 177kts
09-May-18 12:56 46.743786 -113.813908 173 8799ft 173kts
09-May-18 12:57 46.697019 -113.817312 197 8781ft 167kts
09-May-18 12:58 46.656439 -113.847502 220 8781ft 163kts
09-May-18 12:59 46.628053 -113.897955 243 8781ft 161kts
09-May-18 13:00 46.615819 -113.960103 266 8781ft 161kts
09-May-18 13:01 46.622558 -114.015040 292 8387ft 178kts
09-May-18 13:02 46.655471 -114.069140 326 7415ft 187kts
09-May-18 13:03 46.703895 -114.085217 2 6790ft 181kts
09-May-18 13:04 46.754524 -114.074353 5 6020ft 176kts
09-May-18 13:05 46.798261 -114.052949 32 5977ft 171kts
09-May-18 13:06 46.837199 -114.015111 22 5170ft 158kts
09-May-18 13:07 46.876057 -114.023829 316 4374ft 111kts
09-May-18 13:08 46.893952 -114.053690 309 3743ft 87kts
09-May-18 13:09 46.908700 -114.078847 307 3211ft 63kts
09-May-18 13:10 46.913054 -114.084465 19 3209ft 7kts
09-May-18 13:11 46.915443 -114.081085 121 3209ft 0kts
09-May-18 13:12 46.915443 -114.081083 120 3209ft 0kts

Navigation Log

Ident Type
Flight plan parsing failed, navigation log unavailable